sensor_id;sensor_type;location;lat;lon;timestamp;temperature;humidity
78619;DHT22;67941;52.506;5.470;2023-04-15T00:00:33;8.60;58.50
78619;DHT22;67941;52.506;5.470;2023-04-15T00:03:02;8.50;58.60
78619;DHT22;67941;52.506;5.470;2023-04-15T00:05:31;8.50;58.50
78619;DHT22;67941;52.506;5.470;2023-04-15T00:08:00;8.40;58.70
78619;DHT22;67941;52.506;5.470;2023-04-15T00:10:29;8.40;58.70
78619;DHT22;67941;52.506;5.470;2023-04-15T00:12:57;8.30;58.70
78619;DHT22;67941;52.506;5.470;2023-04-15T00:15:26;8.30;58.70
78619;DHT22;67941;52.506;5.470;2023-04-15T00:17:58;8.20;58.90
78619;DHT22;67941;52.506;5.470;2023-04-15T00:20:27;8.20;59.00
78619;DHT22;67941;52.506;5.470;2023-04-15T00:22:56;8.10;59.00
78619;DHT22;67941;52.506;5.470;2023-04-15T00:25:25;8.10;59.10
78619;DHT22;67941;52.506;5.470;2023-04-15T00:27:54;8.10;59.10
78619;DHT22;67941;52.506;5.470;2023-04-15T00:30:23;8.00;59.10
78619;DHT22;67941;52.506;5.470;2023-04-15T00:32:52;8.00;59.10
78619;DHT22;67941;52.506;5.470;2023-04-15T00:35:24;8.00;59.30
78619;DHT22;67941;52.506;5.470;2023-04-15T00:37:53;8.00;59.30
78619;DHT22;67941;52.506;5.470;2023-04-15T00:40:22;7.90;59.30
78619;DHT22;67941;52.506;5.470;2023-04-15T00:42:52;7.80;59.40
78619;DHT22;67941;52.506;5.470;2023-04-15T00:45:22;7.80;59.50
78619;DHT22;67941;52.506;5.470;2023-04-15T00:47:50;7.80;59.50
78619;DHT22;67941;52.506;5.470;2023-04-15T00:50:19;7.80;59.50
78619;DHT22;67941;52.506;5.470;2023-04-15T00:52:51;7.80;59.60
78619;DHT22;67941;52.506;5.470;2023-04-15T00:55:20;7.80;59.70
78619;DHT22;67941;52.506;5.470;2023-04-15T00:57:49;7.70;59.80
78619;DHT22;67941;52.506;5.470;2023-04-15T01:00:19;7.70;59.80
78619;DHT22;67941;52.506;5.470;2023-04-15T01:02:48;7.70;59.80
78619;DHT22;67941;52.506;5.470;2023-04-15T01:05:17;7.70;59.90
78619;DHT22;67941;52.506;5.470;2023-04-15T01:07:49;7.60;59.90
78619;DHT22;67941;52.506;5.470;2023-04-15T01:10:19;7.60;60.00
78619;DHT22;67941;52.506;5.470;2023-04-15T01:12:47;7.60;60.00
78619;DHT22;67941;52.506;5.470;2023-04-15T01:15:17;7.60;59.90
78619;DHT22;67941;52.506;5.470;2023-04-15T01:17:46;7.60;59.90
78619;DHT22;67941;52.506;5.470;2023-04-15T01:20:16;7.50;60.00
78619;DHT22;67941;52.506;5.470;2023-04-15T01:22:45;7.50;60.10
78619;DHT22;67941;52.506;5.470;2023-04-15T01:25:18;7.50;60.20
78619;DHT22;67941;52.506;5.470;2023-04-15T01:27:50;7.50;60.20
78619;DHT22;67941;52.506;5.470;2023-04-15T01:30:19;7.50;60.40
78619;DHT22;67941;52.506;5.470;2023-04-15T01:32:48;7.40;60.50
78619;DHT22;67941;52.506;5.470;2023-04-15T01:35:37;7.40;60.50
78619;DHT22;67941;52.506;5.470;2023-04-15T01:38:07;7.40;60.50
78619;DHT22;67941;52.506;5.470;2023-04-15T01:40:37;7.40;60.60
78619;DHT22;67941;52.506;5.470;2023-04-15T01:43:09;7.40;60.70
78619;DHT22;67941;52.506;5.470;2023-04-15T01:45:39;7.40;60.70
78619;DHT22;67941;52.506;5.470;2023-04-15T01:48:10;7.40;60.70
78619;DHT22;67941;52.506;5.470;2023-04-15T01:50:40;7.30;60.80
78619;DHT22;67941;52.506;5.470;2023-04-15T01:53:10;7.30;60.80
78619;DHT22;67941;52.506;5.470;2023-04-15T01:55:41;7.30;60.90
78619;DHT22;67941;52.506;5.470;2023-04-15T01:58:17;7.20;61.00
78619;DHT22;67941;52.506;5.470;2023-04-15T02:00:48;7.20;61.00
78619;DHT22;67941;52.506;5.470;2023-04-15T02:03:18;7.20;61.10
78619;DHT22;67941;52.506;5.470;2023-04-15T02:05:49;7.20;61.20
78619;DHT22;67941;52.506;5.470;2023-04-15T02:08:19;7.20;61.20
78619;DHT22;67941;52.506;5.470;2023-04-15T02:10:50;7.20;61.30
78619;DHT22;67941;52.506;5.470;2023-04-15T02:13:22;7.20;61.30
78619;DHT22;67941;52.506;5.470;2023-04-15T02:15:54;7.20;61.50
78619;DHT22;67941;52.506;5.470;2023-04-15T02:18:24;7.20;61.50
78619;DHT22;67941;52.506;5.470;2023-04-15T02:20:54;7.20;61.50
78619;DHT22;67941;52.506;5.470;2023-04-15T02:23:25;7.20;61.60
78619;DHT22;67941;52.506;5.470;2023-04-15T02:25:55;7.10;61.60
78619;DHT22;67941;52.506;5.470;2023-04-15T02:28:28;7.10;61.70
78619;DHT22;67941;52.506;5.470;2023-04-15T02:30:58;7.10;61.70
78619;DHT22;67941;52.506;5.470;2023-04-15T02:33:31;7.00;61.80
78619;DHT22;67941;52.506;5.470;2023-04-15T02:36:01;7.00;61.60
78619;DHT22;67941;52.506;5.470;2023-04-15T02:38:31;7.00;61.70
78619;DHT22;67941;52.506;5.470;2023-04-15T02:41:01;7.00;61.80
78619;DHT22;67941;52.506;5.470;2023-04-15T02:43:34;7.00;61.90
78619;DHT22;67941;52.506;5.470;2023-04-15T02:46:06;6.90;62.00
78619;DHT22;67941;52.506;5.470;2023-04-15T02:48:40;6.90;62.10
78619;DHT22;67941;52.506;5.470;2023-04-15T02:51:11;6.90;62.10
78619;DHT22;67941;52.506;5.470;2023-04-15T02:53:42;6.90;62.20
78619;DHT22;67941;52.506;5.470;2023-04-15T02:56:12;6.90;62.30
78619;DHT22;67941;52.506;5.470;2023-04-15T02:58:45;6.90;62.30
78619;DHT22;67941;52.506;5.470;2023-04-15T03:01:16;6.90;62.50
78619;DHT22;67941;52.506;5.470;2023-04-15T03:03:47;6.90;62.50
78619;DHT22;67941;52.506;5.470;2023-04-15T03:06:17;6.90;62.50
78619;DHT22;67941;52.506;5.470;2023-04-15T03:08:47;6.80;62.50
78619;DHT22;67941;52.506;5.470;2023-04-15T03:11:18;6.80;62.50
78619;DHT22;67941;52.506;5.470;2023-04-15T03:13:51;6.80;62.50
78619;DHT22;67941;52.506;5.470;2023-04-15T03:16:32;6.70;62.60
78619;DHT22;67941;52.506;5.470;2023-04-15T03:19:02;6.70;62.60
78619;DHT22;67941;52.506;5.470;2023-04-15T03:21:34;6.70;62.70
78619;DHT22;67941;52.506;5.470;2023-04-15T03:24:04;6.70;62.70
78619;DHT22;67941;52.506;5.470;2023-04-15T03:26:35;6.60;62.80
78619;DHT22;67941;52.506;5.470;2023-04-15T03:29:13;6.60;62.80
78619;DHT22;67941;52.506;5.470;2023-04-15T03:31:44;6.60;62.90
78619;DHT22;67941;52.506;5.470;2023-04-15T03:34:14;6.60;63.00
78619;DHT22;67941;52.506;5.470;2023-04-15T03:36:44;6.60;63.10
78619;DHT22;67941;52.506;5.470;2023-04-15T03:39:14;6.60;63.10
78619;DHT22;67941;52.506;5.470;2023-04-15T03:41:44;6.60;63.20
78619;DHT22;67941;52.506;5.470;2023-04-15T03:44:17;6.60;63.20
78619;DHT22;67941;52.506;5.470;2023-04-15T03:46:47;6.60;63.30
78619;DHT22;67941;52.506;5.470;2023-04-15T03:49:17;6.60;63.30
78619;DHT22;67941;52.506;5.470;2023-04-15T03:51:49;6.60;63.40
78619;DHT22;67941;52.506;5.470;2023-04-15T03:54:19;6.60;63.40
78619;DHT22;67941;52.506;5.470;2023-04-15T03:56:49;6.50;63.50
78619;DHT22;67941;52.506;5.470;2023-04-15T03:59:21;6.60;63.60
78619;DHT22;67941;52.506;5.470;2023-04-15T04:01:52;6.60;63.60
78619;DHT22;67941;52.506;5.470;2023-04-15T04:04:22;6.50;63.70
78619;DHT22;67941;52.506;5.470;2023-04-15T04:06:52;6.60;63.70
78619;DHT22;67941;52.506;5.470;2023-04-15T04:09:22;6.50;63.80
78619;DHT22;67941;52.506;5.470;2023-04-15T04:11:52;6.50;63.90
78619;DHT22;67941;52.506;5.470;2023-04-15T04:14:24;6.50;64.00
78619;DHT22;67941;52.506;5.470;2023-04-15T04:16:55;6.50;64.00
78619;DHT22;67941;52.506;5.470;2023-04-15T04:19:25;6.50;64.10
78619;DHT22;67941;52.506;5.470;2023-04-15T04:21:56;6.50;64.10
78619;DHT22;67941;52.506;5.470;2023-04-15T04:24:26;6.50;64.30
78619;DHT22;67941;52.506;5.470;2023-04-15T04:26:56;6.40;64.30
78619;DHT22;67941;52.506;5.470;2023-04-15T04:29:28;6.40;64.40
78619;DHT22;67941;52.506;5.470;2023-04-15T04:31:58;6.40;64.50
78619;DHT22;67941;52.506;5.470;2023-04-15T04:34:28;6.40;64.50
78619;DHT22;67941;52.506;5.470;2023-04-15T04:36:58;6.40;64.40
78619;DHT22;67941;52.506;5.470;2023-04-15T04:39:28;6.40;64.60
78619;DHT22;67941;52.506;5.470;2023-04-15T04:41:58;6.30;64.70
78619;DHT22;67941;52.506;5.470;2023-04-15T04:44:31;6.30;64.80
78619;DHT22;67941;52.506;5.470;2023-04-15T04:47:01;6.30;64.90
78619;DHT22;67941;52.506;5.470;2023-04-15T04:49:32;6.30;64.90
78619;DHT22;67941;52.506;5.470;2023-04-15T04:52:02;6.30;65.00
78619;DHT22;67941;52.506;5.470;2023-04-15T04:54:33;6.30;65.00
78619;DHT22;67941;52.506;5.470;2023-04-15T04:57:03;6.30;65.20
78619;DHT22;67941;52.506;5.470;2023-04-15T04:59:36;6.30;65.20
78619;DHT22;67941;52.506;5.470;2023-04-15T05:02:06;6.30;65.30
78619;DHT22;67941;52.506;5.470;2023-04-15T05:04:36;6.20;65.30
78619;DHT22;67941;52.506;5.470;2023-04-15T05:07:07;6.20;65.40
78619;DHT22;67941;52.506;5.470;2023-04-15T05:09:38;6.20;65.40
78619;DHT22;67941;52.506;5.470;2023-04-15T05:12:08;6.20;65.40
78619;DHT22;67941;52.506;5.470;2023-04-15T05:14:43;6.30;65.50
78619;DHT22;67941;52.506;5.470;2023-04-15T05:17:13;6.30;65.60
78619;DHT22;67941;52.506;5.470;2023-04-15T05:19:43;6.30;65.60
78619;DHT22;67941;52.506;5.470;2023-04-15T05:22:13;6.30;65.50
78619;DHT22;67941;52.506;5.470;2023-04-15T05:24:43;6.30;65.60
78619;DHT22;67941;52.506;5.470;2023-04-15T05:27:13;6.40;65.60
78619;DHT22;67941;52.506;5.470;2023-04-15T05:29:47;6.40;65.70
78619;DHT22;67941;52.506;5.470;2023-04-15T05:32:17;6.40;65.80
78619;DHT22;67941;52.506;5.470;2023-04-15T05:34:47;6.40;65.80
78619;DHT22;67941;52.506;5.470;2023-04-15T05:37:18;6.40;65.90
78619;DHT22;67941;52.506;5.470;2023-04-15T05:39:49;6.50;66.00
78619;DHT22;67941;52.506;5.470;2023-04-15T05:42:19;6.50;65.90
78619;DHT22;67941;52.506;5.470;2023-04-15T05:44:52;6.50;66.00
78619;DHT22;67941;52.506;5.470;2023-04-15T05:47:22;6.60;66.00
78619;DHT22;67941;52.506;5.470;2023-04-15T05:49:52;6.60;66.10
78619;DHT22;67941;52.506;5.470;2023-04-15T05:52:22;6.60;66.10
78619;DHT22;67941;52.506;5.470;2023-04-15T05:54:52;6.60;66.20
78619;DHT22;67941;52.506;5.470;2023-04-15T05:57:22;6.60;66.10
78619;DHT22;67941;52.506;5.470;2023-04-15T05:59:55;6.70;66.20
78619;DHT22;67941;52.506;5.470;2023-04-15T06:02:25;6.60;66.20
78619;DHT22;67941;52.506;5.470;2023-04-15T06:04:55;6.70;66.20
78619;DHT22;67941;52.506;5.470;2023-04-15T06:07:25;6.70;66.20
78619;DHT22;67941;52.506;5.470;2023-04-15T06:09:55;6.60;66.30
78619;DHT22;67941;52.506;5.470;2023-04-15T06:12:25;6.60;66.30
78619;DHT22;67941;52.506;5.470;2023-04-15T06:14:57;6.60;66.40
78619;DHT22;67941;52.506;5.470;2023-04-15T06:17:27;6.60;66.40
78619;DHT22;67941;52.506;5.470;2023-04-15T06:19:57;6.60;66.50
78619;DHT22;67941;52.506;5.470;2023-04-15T06:22:27;6.60;66.50
78619;DHT22;67941;52.506;5.470;2023-04-15T06:24:57;6.60;66.60
78619;DHT22;67941;52.506;5.470;2023-04-15T06:27:27;6.60;66.60
78619;DHT22;67941;52.506;5.470;2023-04-15T06:30:00;6.60;66.80
78619;DHT22;67941;52.506;5.470;2023-04-15T06:32:31;6.70;66.80
78619;DHT22;67941;52.506;5.470;2023-04-15T06:35:01;6.80;66.80
78619;DHT22;67941;52.506;5.470;2023-04-15T06:37:31;6.80;66.80
78619;DHT22;67941;52.506;5.470;2023-04-15T06:40:02;6.90;66.80
78619;DHT22;67941;52.506;5.470;2023-04-15T06:42:33;7.00;66.90
78619;DHT22;67941;52.506;5.470;2023-04-15T06:45:25;7.00;66.90
78619;DHT22;67941;52.506;5.470;2023-04-15T06:47:55;7.20;66.80
78619;DHT22;67941;52.506;5.470;2023-04-15T06:50:25;7.20;66.80
78619;DHT22;67941;52.506;5.470;2023-04-15T06:52:55;7.40;66.80
78619;DHT22;67941;52.506;5.470;2023-04-15T06:55:26;7.40;66.80
78619;DHT22;67941;52.506;5.470;2023-04-15T06:57:57;7.50;66.70
78619;DHT22;67941;52.506;5.470;2023-04-15T07:00:30;7.60;66.70
78619;DHT22;67941;52.506;5.470;2023-04-15T07:03:00;7.70;66.80
78619;DHT22;67941;52.506;5.470;2023-04-15T07:05:30;7.80;66.80
78619;DHT22;67941;52.506;5.470;2023-04-15T07:08:01;7.80;66.60
78619;DHT22;67941;52.506;5.470;2023-04-15T07:10:31;7.90;66.60
78619;DHT22;67941;52.506;5.470;2023-04-15T07:13:01;8.00;66.70
78619;DHT22;67941;52.506;5.470;2023-04-15T07:15:33;8.00;66.70
78619;DHT22;67941;52.506;5.470;2023-04-15T07:18:03;8.10;66.70
78619;DHT22;67941;52.506;5.470;2023-04-15T07:20:33;8.10;66.70
78619;DHT22;67941;52.506;5.470;2023-04-15T07:23:03;8.10;66.60
78619;DHT22;67941;52.506;5.470;2023-04-15T07:25:34;8.20;66.60
78619;DHT22;67941;52.506;5.470;2023-04-15T07:28:04;8.20;66.60
78619;DHT22;67941;52.506;5.470;2023-04-15T07:30:37;8.20;66.60
78619;DHT22;67941;52.506;5.470;2023-04-15T07:33:07;8.20;66.60
78619;DHT22;67941;52.506;5.470;2023-04-15T07:35:37;8.20;66.70
78619;DHT22;67941;52.506;5.470;2023-04-15T07:38:07;8.20;66.70
78619;DHT22;67941;52.506;5.470;2023-04-15T07:40:38;8.30;66.80
78619;DHT22;67941;52.506;5.470;2023-04-15T07:43:09;8.30;66.80
78619;DHT22;67941;52.506;5.470;2023-04-15T07:45:42;8.30;66.90
78619;DHT22;67941;52.506;5.470;2023-04-15T07:48:12;8.40;66.90
78619;DHT22;67941;52.506;5.470;2023-04-15T07:50:42;8.50;66.80
78619;DHT22;67941;52.506;5.470;2023-04-15T07:53:12;8.60;66.70
78619;DHT22;67941;52.506;5.470;2023-04-15T07:55:42;8.60;66.70
78619;DHT22;67941;52.506;5.470;2023-04-15T07:58:12;8.60;66.70
78619;DHT22;67941;52.506;5.470;2023-04-15T08:00:45;8.80;66.70
78619;DHT22;67941;52.506;5.470;2023-04-15T08:03:15;8.80;66.60
78619;DHT22;67941;52.506;5.470;2023-04-15T08:05:45;8.90;66.60
78619;DHT22;67941;52.506;5.470;2023-04-15T08:08:16;8.90;66.60
78619;DHT22;67941;52.506;5.470;2023-04-15T08:10:46;8.90;66.50
78619;DHT22;67941;52.506;5.470;2023-04-15T08:13:17;9.00;66.50
78619;DHT22;67941;52.506;5.470;2023-04-15T08:16:14;9.00;66.60
78619;DHT22;67941;52.506;5.470;2023-04-15T08:18:45;9.00;66.60
78619;DHT22;67941;52.506;5.470;2023-04-15T08:21:16;9.00;66.70
78619;DHT22;67941;52.506;5.470;2023-04-15T08:23:47;9.10;66.60
78619;DHT22;67941;52.506;5.470;2023-04-15T08:26:19;9.20;66.70
78619;DHT22;67941;52.506;5.470;2023-04-15T08:28:49;9.20;66.60
78619;DHT22;67941;52.506;5.470;2023-04-15T08:31:22;9.20;66.70
78619;DHT22;67941;52.506;5.470;2023-04-15T08:33:52;9.30;66.60
78619;DHT22;67941;52.506;5.470;2023-04-15T08:36:23;9.40;66.70
78619;DHT22;67941;52.506;5.470;2023-04-15T08:38:53;9.40;66.70
78619;DHT22;67941;52.506;5.470;2023-04-15T08:41:25;9.50;66.70
78619;DHT22;67941;52.506;5.470;2023-04-15T08:43:57;9.60;66.60
78619;DHT22;67941;52.506;5.470;2023-04-15T08:46:30;9.60;66.60
78619;DHT22;67941;52.506;5.470;2023-04-15T08:49:03;9.70;66.60
78619;DHT22;67941;52.506;5.470;2023-04-15T08:51:33;9.80;66.70
78619;DHT22;67941;52.506;5.470;2023-04-15T08:54:04;9.90;66.60
78619;DHT22;67941;52.506;5.470;2023-04-15T08:56:36;10.00;66.60
78619;DHT22;67941;52.506;5.470;2023-04-15T08:59:08;10.00;66.50
78619;DHT22;67941;52.506;5.470;2023-04-15T09:01:41;10.00;66.60
78619;DHT22;67941;52.506;5.470;2023-04-15T09:04:12;10.10;66.60
78619;DHT22;67941;52.506;5.470;2023-04-15T09:06:43;10.20;66.50
78619;DHT22;67941;52.506;5.470;2023-04-15T09:09:13;10.20;66.60
78619;DHT22;67941;52.506;5.470;2023-04-15T09:11:43;10.30;66.70
78619;DHT22;67941;52.506;5.470;2023-04-15T09:14:13;10.30;66.60
78619;DHT22;67941;52.506;5.470;2023-04-15T09:17:00;10.40;66.60
78619;DHT22;67941;52.506;5.470;2023-04-15T09:19:31;10.50;66.60
78619;DHT22;67941;52.506;5.470;2023-04-15T09:22:02;10.60;66.70
78619;DHT22;67941;52.506;5.470;2023-04-15T09:24:36;10.60;66.60
78619;DHT22;67941;52.506;5.470;2023-04-15T09:27:08;10.70;66.60
78619;DHT22;67941;52.506;5.470;2023-04-15T09:29:40;10.80;66.60
78619;DHT22;67941;52.506;5.470;2023-04-15T09:32:14;10.90;66.60
78619;DHT22;67941;52.506;5.470;2023-04-15T09:34:44;11.00;66.60
78619;DHT22;67941;52.506;5.470;2023-04-15T09:37:14;11.10;66.60
78619;DHT22;67941;52.506;5.470;2023-04-15T09:39:47;11.20;66.60
78619;DHT22;67941;52.506;5.470;2023-04-15T09:42:18;11.30;66.50
78619;DHT22;67941;52.506;5.470;2023-04-15T09:44:50;11.40;66.60
78619;DHT22;67941;52.506;5.470;2023-04-15T09:47:29;11.50;66.50
78619;DHT22;67941;52.506;5.470;2023-04-15T09:50:00;11.60;66.50
78619;DHT22;67941;52.506;5.470;2023-04-15T09:55:17;11.70;66.40
78619;DHT22;67941;52.506;5.470;2023-04-15T09:57:47;11.70;66.30
78619;DHT22;67941;52.506;5.470;2023-04-15T10:00:17;11.70;66.20
78619;DHT22;67941;52.506;5.470;2023-04-15T10:02:51;11.70;66.20
78619;DHT22;67941;52.506;5.470;2023-04-15T10:05:21;11.70;66.10
78619;DHT22;67941;52.506;5.470;2023-04-15T10:07:51;11.70;66.00
78619;DHT22;67941;52.506;5.470;2023-04-15T10:10:22;11.80;65.80
78619;DHT22;67941;52.506;5.470;2023-04-15T10:12:52;11.70;65.80
78619;DHT22;67941;52.506;5.470;2023-04-15T10:15:24;11.80;65.70
78619;DHT22;67941;52.506;5.470;2023-04-15T10:17:57;11.80;65.60
78619;DHT22;67941;52.506;5.470;2023-04-15T10:20:29;11.80;65.50
78619;DHT22;67941;52.506;5.470;2023-04-15T10:23:00;11.80;65.50
78619;DHT22;67941;52.506;5.470;2023-04-15T10:25:32;11.80;65.40
78619;DHT22;67941;52.506;5.470;2023-04-15T10:28:04;11.90;65.40
78619;DHT22;67941;52.506;5.470;2023-04-15T10:30:35;11.90;65.30
78619;DHT22;67941;52.506;5.470;2023-04-15T10:33:09;11.90;65.20
78619;DHT22;67941;52.506;5.470;2023-04-15T10:35:40;11.90;65.10
78619;DHT22;67941;52.506;5.470;2023-04-15T10:38:32;12.00;65.00
78619;DHT22;67941;52.506;5.470;2023-04-15T10:41:17;12.00;65.00
78619;DHT22;67941;52.506;5.470;2023-04-15T10:43:49;12.00;64.80
78619;DHT22;67941;52.506;5.470;2023-04-15T10:46:23;11.90;64.90
78619;DHT22;67941;52.506;5.470;2023-04-15T10:49:06;11.90;64.90
78619;DHT22;67941;52.506;5.470;2023-04-15T10:51:38;11.90;64.80
78619;DHT22;67941;52.506;5.470;2023-04-15T10:54:14;11.80;64.80
78619;DHT22;67941;52.506;5.470;2023-04-15T10:56:44;11.90;64.90
78619;DHT22;67941;52.506;5.470;2023-04-15T10:59:21;11.90;64.80
78619;DHT22;67941;52.506;5.470;2023-04-15T11:01:55;11.80;64.60
78619;DHT22;67941;52.506;5.470;2023-04-15T11:04:53;11.70;64.60
78619;DHT22;67941;52.506;5.470;2023-04-15T11:07:36;11.60;64.60
78619;DHT22;67941;52.506;5.470;2023-04-15T11:13:21;11.40;64.60
78619;DHT22;67941;52.506;5.470;2023-04-15T11:15:57;11.30;64.70
78619;DHT22;67941;52.506;5.470;2023-04-15T11:18:32;11.30;64.80
78619;DHT22;67941;52.506;5.470;2023-04-15T11:21:06;11.30;64.70
78619;DHT22;67941;52.506;5.470;2023-04-15T11:23:38;11.30;64.70
78619;DHT22;67941;52.506;5.470;2023-04-15T11:26:10;11.30;64.70
78619;DHT22;67941;52.506;5.470;2023-04-15T11:28:53;11.30;64.70
78619;DHT22;67941;52.506;5.470;2023-04-15T11:31:26;11.30;64.70
78619;DHT22;67941;52.506;5.470;2023-04-15T11:33:57;11.40;64.70
78619;DHT22;67941;52.506;5.470;2023-04-15T11:36:31;11.50;64.70
78619;DHT22;67941;52.506;5.470;2023-04-15T11:39:01;11.50;64.70
78619;DHT22;67941;52.506;5.470;2023-04-15T11:41:31;11.70;64.80
78619;DHT22;67941;52.506;5.470;2023-04-15T11:44:01;11.90;64.70
78619;DHT22;67941;52.506;5.470;2023-04-15T11:46:31;11.90;64.60
78619;DHT22;67941;52.506;5.470;2023-04-15T11:49:01;12.00;64.50
78619;DHT22;67941;52.506;5.470;2023-04-15T11:51:34;12.10;64.60
78619;DHT22;67941;52.506;5.470;2023-04-15T11:54:03;12.20;64.60
78619;DHT22;67941;52.506;5.470;2023-04-15T11:56:32;12.40;64.50
78619;DHT22;67941;52.506;5.470;2023-04-15T11:59:01;12.50;64.50
78619;DHT22;67941;52.506;5.470;2023-04-15T12:01:31;12.70;64.60
78619;DHT22;67941;52.506;5.470;2023-04-15T12:04:00;12.80;64.30
78619;DHT22;67941;52.506;5.470;2023-04-15T12:06:34;12.90;64.20
78619;DHT22;67941;52.506;5.470;2023-04-15T12:09:07;13.00;64.10
78619;DHT22;67941;52.506;5.470;2023-04-15T12:11:39;13.00;64.10
78619;DHT22;67941;52.506;5.470;2023-04-15T12:14:10;13.10;64.20
78619;DHT22;67941;52.506;5.470;2023-04-15T12:16:41;13.10;64.30
78619;DHT22;67941;52.506;5.470;2023-04-15T12:19:12;13.40;64.20
78619;DHT22;67941;52.506;5.470;2023-04-15T12:21:45;13.50;63.80
78619;DHT22;67941;52.506;5.470;2023-04-15T12:24:15;13.50;63.60
78619;DHT22;67941;52.506;5.470;2023-04-15T12:26:49;13.30;63.60
78619;DHT22;67941;52.506;5.470;2023-04-15T12:29:19;13.30;63.50
78619;DHT22;67941;52.506;5.470;2023-04-15T12:31:49;13.10;63.40
78619;DHT22;67941;52.506;5.470;2023-04-15T12:34:26;13.00;63.60
78619;DHT22;67941;52.506;5.470;2023-04-15T12:37:00;13.00;63.60
78619;DHT22;67941;52.506;5.470;2023-04-15T12:39:30;13.00;63.50
78619;DHT22;67941;52.506;5.470;2023-04-15T12:41:59;12.90;63.60
78619;DHT22;67941;52.506;5.470;2023-04-15T12:44:29;12.90;63.70
78619;DHT22;67941;52.506;5.470;2023-04-15T12:46:58;13.00;63.70
78619;DHT22;67941;52.506;5.470;2023-04-15T12:49:28;13.00;63.70
78619;DHT22;67941;52.506;5.470;2023-04-15T12:52:01;13.00;63.40
78619;DHT22;67941;52.506;5.470;2023-04-15T12:54:30;12.90;63.40
78619;DHT22;67941;52.506;5.470;2023-04-15T12:57:01;12.90;63.50
78619;DHT22;67941;52.506;5.470;2023-04-15T12:59:30;12.80;63.50
78619;DHT22;67941;52.506;5.470;2023-04-15T13:02:00;12.80;63.50
78619;DHT22;67941;52.506;5.470;2023-04-15T13:04:29;12.90;63.60
78619;DHT22;67941;52.506;5.470;2023-04-15T13:07:01;12.90;63.40
78619;DHT22;67941;52.506;5.470;2023-04-15T13:09:30;12.90;63.20
78619;DHT22;67941;52.506;5.470;2023-04-15T13:11:59;12.80;63.30
78619;DHT22;67941;52.506;5.470;2023-04-15T13:14:30;12.80;63.30
78619;DHT22;67941;52.506;5.470;2023-04-15T13:16:59;12.80;63.20
78619;DHT22;67941;52.506;5.470;2023-04-15T13:19:28;12.70;63.00
78619;DHT22;67941;52.506;5.470;2023-04-15T13:22:00;12.60;63.10
78619;DHT22;67941;52.506;5.470;2023-04-15T13:24:29;12.60;63.20
78619;DHT22;67941;52.506;5.470;2023-04-15T13:26:57;12.50;63.10
78619;DHT22;67941;52.506;5.470;2023-04-15T13:29:27;12.50;63.00
78619;DHT22;67941;52.506;5.470;2023-04-15T13:31:56;12.30;63.00
78619;DHT22;67941;52.506;5.470;2023-04-15T13:34:26;12.20;63.20
78619;DHT22;67941;52.506;5.470;2023-04-15T13:36:55;12.10;63.30
78619;DHT22;67941;52.506;5.470;2023-04-15T13:39:26;12.10;63.50
78619;DHT22;67941;52.506;5.470;2023-04-15T13:41:55;12.20;63.60
78619;DHT22;67941;52.506;5.470;2023-04-15T13:44:24;12.30;63.50
78619;DHT22;67941;52.506;5.470;2023-04-15T13:46:53;12.30;63.50
78619;DHT22;67941;52.506;5.470;2023-04-15T13:49:22;12.40;63.50
78619;DHT22;67941;52.506;5.470;2023-04-15T13:51:51;12.50;63.50
78619;DHT22;67941;52.506;5.470;2023-04-15T13:54:19;12.50;63.40
78619;DHT22;67941;52.506;5.470;2023-04-15T13:56:51;12.60;63.30
78619;DHT22;67941;52.506;5.470;2023-04-15T13:59:21;12.60;63.40
78619;DHT22;67941;52.506;5.470;2023-04-15T14:01:50;12.70;63.40
78619;DHT22;67941;52.506;5.470;2023-04-15T14:04:18;12.70;63.20
78619;DHT22;67941;52.506;5.470;2023-04-15T14:06:47;12.70;63.10
78619;DHT22;67941;52.506;5.470;2023-04-15T14:09:16;12.70;62.90
78619;DHT22;67941;52.506;5.470;2023-04-15T14:11:47;12.50;62.80
78619;DHT22;67941;52.506;5.470;2023-04-15T14:14:18;12.40;62.90
78619;DHT22;67941;52.506;5.470;2023-04-15T14:16:47;12.30;63.10
78619;DHT22;67941;52.506;5.470;2023-04-15T14:19:16;12.20;63.30
78619;DHT22;67941;52.506;5.470;2023-04-15T14:21:44;12.20;63.40
78619;DHT22;67941;52.506;5.470;2023-04-15T14:24:13;12.30;63.40
78619;DHT22;67941;52.506;5.470;2023-04-15T14:26:42;12.50;63.30
78619;DHT22;67941;52.506;5.470;2023-04-15T14:29:11;12.50;63.00
78619;DHT22;67941;52.506;5.470;2023-04-15T14:31:42;12.40;62.90
78619;DHT22;67941;52.506;5.470;2023-04-15T14:34:16;12.20;62.70
78619;DHT22;67941;52.506;5.470;2023-04-15T14:36:47;11.90;62.80
78619;DHT22;67941;52.506;5.470;2023-04-15T14:39:16;11.70;63.00
78619;DHT22;67941;52.506;5.470;2023-04-15T14:41:44;11.50;63.20
78619;DHT22;67941;52.506;5.470;2023-04-15T14:44:13;11.40;63.20
78619;DHT22;67941;52.506;5.470;2023-04-15T14:46:45;11.30;63.30
78619;DHT22;67941;52.506;5.470;2023-04-15T14:49:14;11.10;63.40
78619;DHT22;67941;52.506;5.470;2023-04-15T14:51:43;11.10;63.50
78619;DHT22;67941;52.506;5.470;2023-04-15T14:54:12;11.00;63.50
78619;DHT22;67941;52.506;5.470;2023-04-15T14:56:41;11.00;63.50
78619;DHT22;67941;52.506;5.470;2023-04-15T14:59:09;10.90;63.50
78619;DHT22;67941;52.506;5.470;2023-04-15T15:01:38;10.80;63.50
78619;DHT22;67941;52.506;5.470;2023-04-15T15:04:11;10.60;63.60
78619;DHT22;67941;52.506;5.470;2023-04-15T15:06:40;10.50;63.80
78619;DHT22;67941;52.506;5.470;2023-04-15T15:09:09;10.50;63.80
78619;DHT22;67941;52.506;5.470;2023-04-15T15:11:38;10.40;63.90
78619;DHT22;67941;52.506;5.470;2023-04-15T15:14:07;10.40;64.00
78619;DHT22;67941;52.506;5.470;2023-04-15T15:16:36;10.50;64.20
78619;DHT22;67941;52.506;5.470;2023-04-15T15:19:05;10.60;64.20
78619;DHT22;67941;52.506;5.470;2023-04-15T15:21:37;10.70;64.20
78619;DHT22;67941;52.506;5.470;2023-04-15T15:24:05;10.70;64.00
78619;DHT22;67941;52.506;5.470;2023-04-15T15:26:34;10.70;63.90
78619;DHT22;67941;52.506;5.470;2023-04-15T15:29:03;10.60;64.00
78619;DHT22;67941;52.506;5.470;2023-04-15T15:31:33;10.60;64.20
78619;DHT22;67941;52.506;5.470;2023-04-15T15:34:03;10.60;64.20
78619;DHT22;67941;52.506;5.470;2023-04-15T15:36:32;10.60;64.20
78619;DHT22;67941;52.506;5.470;2023-04-15T15:39:03;10.60;64.10
78619;DHT22;67941;52.506;5.470;2023-04-15T15:41:32;10.50;64.20
78619;DHT22;67941;52.506;5.470;2023-04-15T15:44:01;10.40;64.20
78619;DHT22;67941;52.506;5.470;2023-04-15T15:46:30;10.40;64.30
78619;DHT22;67941;52.506;5.470;2023-04-15T15:48:59;10.30;64.40
78619;DHT22;67941;52.506;5.470;2023-04-15T15:51:29;10.30;64.50
78619;DHT22;67941;52.506;5.470;2023-04-15T15:53:58;10.30;64.50
78619;DHT22;67941;52.506;5.470;2023-04-15T15:56:30;10.30;64.50
78619;DHT22;67941;52.506;5.470;2023-04-15T15:58:59;10.30;64.50
78619;DHT22;67941;52.506;5.470;2023-04-15T16:01:28;10.30;64.50
78619;DHT22;67941;52.506;5.470;2023-04-15T16:03:57;10.40;64.50
78619;DHT22;67941;52.506;5.470;2023-04-15T16:06:27;10.40;64.40
78619;DHT22;67941;52.506;5.470;2023-04-15T16:08:56;10.30;64.60